createdAt,value
2022-09-19T00:01:18.992Z,7.98
2022-09-19T00:03:47.716Z,7.94
2022-09-19T00:06:16.196Z,7.95
2022-09-19T00:08:44.175Z,7.85
2022-09-19T00:11:12.306Z,7.80
2022-09-19T00:13:46.320Z,7.81
2022-09-19T00:16:13.818Z,7.80
2022-09-19T00:18:40.394Z,7.74
2022-09-19T00:21:06.881Z,7.67
2022-09-19T00:23:51.679Z,7.66
2022-09-19T00:26:19.873Z,7.63
2022-09-19T00:28:47.294Z,7.59
2022-09-19T00:31:19.144Z,7.56
2022-09-19T00:33:47.460Z,7.49
2022-09-19T00:36:15.133Z,7.48
2022-09-19T00:38:42.086Z,7.42
2022-09-19T00:41:09.324Z,7.41
2022-09-19T00:43:56.753Z,7.40
2022-09-19T00:46:25.096Z,7.33
2022-09-19T00:49:11.996Z,7.38
2022-09-19T00:51:47.404Z,7.31
2022-09-19T00:54:22.016Z,7.33
2022-09-19T00:56:52.321Z,7.33
2022-09-19T00:59:21.034Z,7.40
2022-09-19T01:01:47.807Z,7.37
2022-09-19T01:04:19.651Z,7.35
2022-09-19T01:07:01.371Z,7.38
2022-09-19T01:09:45.118Z,7.35
2022-09-19T01:12:28.148Z,7.22
2022-09-19T01:15:29.753Z,7.26
2022-09-19T01:17:59.004Z,7.32
2022-09-19T01:20:38.439Z,7.24
2022-09-19T01:23:44.798Z,7.26
2022-09-19T01:26:39.079Z,7.18
2022-09-19T01:29:46.106Z,7.09
2022-09-19T01:32:16.209Z,7.14
2022-09-19T01:34:47.687Z,7.07
2022-09-19T01:37:35.335Z,7.07
2022-09-19T01:40:04.958Z,6.97
2022-09-19T01:42:31.513Z,6.95
2022-09-19T01:44:57.951Z,6.91
2022-09-19T01:47:40.202Z,6.90
2022-09-19T01:50:33.015Z,6.74
2022-09-19T01:53:13.845Z,6.71
2022-09-19T01:56:06.714Z,6.68
2022-09-19T01:58:49.349Z,6.60
2022-09-19T02:01:34.774Z,6.56
2022-09-19T02:04:15.655Z,6.48
2022-09-19T02:06:59.993Z,6.51
2022-09-19T02:09:35.964Z,6.51
2022-09-19T02:12:02.850Z,6.48
2022-09-19T02:14:32.623Z,6.39
2022-09-19T02:17:04.636Z,6.44
2022-09-19T02:19:45.024Z,6.38
2022-09-19T02:22:33.881Z,6.26
2022-09-19T02:25:03.612Z,6.22
2022-09-19T02:27:35.979Z,6.15
2022-09-19T02:30:06.368Z,6.21
2022-09-19T02:32:34.434Z,6.10
2022-09-19T02:35:00.943Z,6.05
2022-09-19T02:37:31.616Z,5.97
2022-09-19T02:40:09.964Z,5.95
2022-09-19T02:42:58.756Z,5.89
2022-09-19T02:45:33.132Z,5.88
2022-09-19T02:48:21.724Z,5.89
2022-09-19T02:51:13.010Z,6.01
2022-09-19T02:53:43.870Z,5.96
2022-09-19T02:56:15.178Z,5.97
2022-09-19T02:58:51.990Z,6.02
2022-09-19T03:01:24.068Z,6.06
2022-09-19T03:04:13.384Z,6.07
2022-09-19T03:06:48.921Z,6.06
2022-09-19T03:09:19.099Z,6.02
2022-09-19T03:11:50.642Z,6.05
2022-09-19T03:14:18.691Z,5.99
2022-09-19T03:16:48.364Z,6.09
2022-09-19T03:19:15.113Z,6.04
2022-09-19T03:21:42.815Z,6.10
2022-09-19T03:24:09.673Z,6.10
2022-09-19T03:26:37.359Z,6.12
2022-09-19T03:29:06.723Z,6.11
2022-09-19T03:31:33.401Z,6.16
2022-09-19T03:33:59.894Z,6.24
2022-09-19T03:36:27.378Z,6.24
2022-09-19T03:38:53.917Z,6.13
2022-09-19T03:41:23.137Z,6.19
2022-09-19T03:43:51.027Z,6.21
2022-09-19T03:46:20.761Z,6.20
2022-09-19T03:48:47.718Z,6.32
2022-09-19T03:51:15.382Z,6.18
2022-09-19T03:53:43.829Z,6.22
2022-09-19T03:56:11.753Z,6.29
2022-09-19T03:58:42.031Z,6.26
2022-09-19T04:01:08.949Z,6.21
2022-09-19T04:03:36.898Z,6.14
2022-09-19T04:06:04.242Z,6.14
2022-09-19T04:08:31.094Z,6.08
2022-09-19T04:10:57.564Z,6.06
2022-09-19T04:13:24.173Z,6.15
2022-09-19T04:15:51.564Z,6.19
2022-09-19T04:18:19.332Z,6.13
2022-09-19T04:20:47.164Z,6.07
2022-09-19T04:23:14.993Z,6.13
2022-09-19T04:25:41.449Z,6.12
2022-09-19T04:28:10.255Z,6.15
2022-09-19T04:30:37.949Z,6.19
2022-09-19T04:33:05.661Z,6.15
2022-09-19T04:35:36.367Z,6.11
2022-09-19T04:38:04.155Z,6.14
2022-09-19T04:40:30.770Z,6.13
2022-09-19T04:42:58.660Z,6.11
2022-09-19T04:45:25.167Z,6.18
2022-09-19T04:47:52.041Z,6.18
2022-09-19T04:50:19.808Z,6.16
2022-09-19T04:52:46.436Z,6.16
2022-09-19T04:55:12.897Z,6.21
2022-09-19T04:57:39.592Z,6.24
2022-09-19T05:00:06.791Z,6.19
2022-09-19T05:02:33.677Z,6.25
2022-09-19T05:05:00.314Z,6.26
2022-09-19T05:07:34.320Z,6.21
2022-09-19T05:10:02.585Z,6.22
2022-09-19T05:12:29.810Z,6.22
2022-09-19T05:14:56.735Z,6.20
2022-09-19T05:17:24.547Z,6.21
2022-09-19T05:19:51.047Z,6.22
2022-09-19T05:22:17.904Z,6.09
2022-09-19T05:24:44.447Z,6.12
2022-09-19T05:27:12.631Z,6.10
2022-09-19T05:29:40.512Z,6.09
2022-09-19T05:32:07.162Z,6.12
2022-09-19T05:34:33.743Z,6.11
2022-09-19T05:37:00.165Z,6.09
2022-09-19T05:39:26.633Z,6.16
2022-09-19T05:41:53.145Z,6.20
2022-09-19T05:44:20.092Z,6.21
2022-09-19T05:46:46.771Z,6.27
2022-09-19T05:49:13.233Z,6.28
2022-09-19T05:51:39.679Z,6.27
2022-09-19T05:54:06.669Z,6.29
2022-09-19T05:56:33.225Z,6.37
2022-09-19T05:58:59.658Z,6.41
2022-09-19T06:01:26.247Z,6.38
2022-09-19T06:03:52.760Z,6.35
2022-09-19T06:06:22.236Z,6.45
2022-09-19T06:08:57.074Z,6.44
2022-09-19T06:11:24.045Z,6.51
2022-09-19T06:14:09.287Z,6.62
2022-09-19T06:16:36.956Z,6.54
2022-09-19T06:19:03.566Z,6.66
2022-09-19T06:21:32.193Z,6.64
2022-09-19T06:23:58.812Z,6.70
2022-09-19T06:26:25.988Z,6.69
2022-09-19T06:28:52.770Z,6.67
2022-09-19T06:31:19.346Z,6.69
2022-09-19T06:33:46.089Z,6.75
2022-09-19T06:36:12.866Z,6.76
2022-09-19T06:38:41.770Z,6.74
2022-09-19T06:41:09.437Z,6.83
2022-09-19T06:43:35.900Z,6.81
2022-09-19T06:46:02.656Z,6.77
2022-09-19T06:48:29.188Z,6.73
2022-09-19T06:50:55.599Z,6.81
2022-09-19T06:53:22.063Z,6.79
2022-09-19T06:55:48.936Z,6.79
2022-09-19T06:58:16.429Z,6.79
2022-09-19T07:00:45.739Z,6.86
2022-09-19T07:03:16.183Z,6.79
2022-09-19T07:05:44.001Z,6.84
2022-09-19T07:08:11.452Z,6.91
2022-09-19T07:10:37.989Z,6.89
2022-09-19T07:13:06.096Z,6.88
2022-09-19T07:15:34.513Z,6.91
2022-09-19T07:18:00.944Z,7.00
2022-09-19T07:20:28.786Z,7.04
2022-09-19T07:23:02.225Z,7.09
2022-09-19T07:25:32.649Z,7.12
2022-09-19T07:28:04.381Z,7.08
2022-09-19T07:30:32.739Z,7.07
2022-09-19T07:33:00.671Z,7.05
2022-09-19T07:35:32.636Z,7.16
2022-09-19T07:38:01.394Z,7.06
2022-09-19T07:40:27.989Z,7.09
2022-09-19T07:42:59.671Z,7.10
2022-09-19T07:45:26.264Z,7.10
2022-09-19T07:47:52.903Z,7.02
2022-09-19T07:50:19.698Z,6.97
2022-09-19T07:52:49.151Z,6.94
2022-09-19T07:55:15.855Z,6.94
2022-09-19T07:57:52.174Z,6.85
2022-09-19T08:00:19.643Z,6.81
2022-09-19T08:02:54.660Z,6.77
2022-09-19T08:05:22.315Z,6.82
2022-09-19T08:07:48.919Z,6.83
2022-09-19T08:10:16.960Z,6.86
2022-09-19T08:12:46.780Z,6.86
2022-09-19T08:15:19.509Z,6.95
2022-09-19T08:17:59.822Z,6.97
2022-09-19T08:20:27.431Z,7.05
2022-09-19T08:23:14.820Z,7.03
2022-09-19T08:25:47.311Z,7.10
2022-09-19T08:28:14.905Z,7.09
2022-09-19T08:30:43.286Z,7.10
2022-09-19T08:33:13.080Z,7.21
2022-09-19T08:35:41.112Z,7.17
2022-09-19T08:38:08.815Z,7.26
2022-09-19T08:40:41.041Z,7.26
2022-09-19T08:43:22.649Z,7.33
2022-09-19T08:46:13.743Z,7.28
2022-09-19T08:48:55.074Z,7.19
2022-09-19T08:51:39.313Z,7.19
2022-09-19T08:54:27.292Z,7.19
2022-09-19T08:56:54.059Z,7.18
2022-09-19T08:59:24.280Z,7.15
2022-09-19T09:02:12.920Z,7.24
2022-09-19T09:04:40.907Z,7.27
2022-09-19T09:07:16.120Z,7.37
2022-09-19T09:10:04.221Z,7.42
2022-09-19T09:12:41.707Z,7.40
2022-09-19T09:15:32.859Z,7.46
2022-09-19T09:18:29.396Z,7.48
2022-09-19T09:21:04.307Z,7.49
2022-09-19T09:23:35.941Z,7.43
2022-09-19T09:26:07.402Z,7.52
2022-09-19T09:28:44.066Z,7.53
2022-09-19T09:31:26.213Z,7.61
2022-09-19T09:33:58.152Z,7.67
2022-09-19T09:36:33.128Z,7.78
2022-09-19T09:39:09.657Z,7.78
2022-09-19T09:41:51.452Z,7.81
2022-09-19T09:44:22.034Z,7.80
2022-09-19T09:46:51.338Z,7.83
2022-09-19T09:49:18.918Z,7.81
2022-09-19T09:52:10.248Z,7.84
2022-09-19T09:55:28.025Z,7.88
2022-09-19T09:58:13.987Z,7.81
2022-09-19T10:01:01.735Z,7.86
2022-09-19T10:03:43.927Z,7.90
2022-09-19T10:06:16.352Z,7.96
2022-09-19T10:09:07.457Z,7.87
2022-09-19T10:14:32.891Z,7.97
2022-09-19T10:17:02.542Z,7.91
2022-09-19T10:19:36.850Z,7.97
2022-09-19T10:22:03.763Z,7.91
2022-09-19T10:24:54.248Z,7.96
2022-09-19T10:27:34.222Z,7.96
2022-09-19T10:30:18.059Z,7.98
2022-09-19T10:32:45.373Z,7.99
2022-09-19T10:35:28.213Z,8.01
2022-09-19T10:38:14.734Z,8.13
2022-09-19T10:41:01.121Z,8.18
2022-09-19T10:43:33.161Z,8.13
2022-09-19T10:46:07.576Z,8.17
2022-09-19T10:48:39.676Z,8.10
2022-09-19T10:51:09.256Z,8.14
2022-09-19T10:53:38.132Z,8.19
2022-09-19T10:56:08.862Z,8.22
2022-09-19T10:58:40.873Z,8.26
2022-09-19T11:01:09.627Z,8.28
2022-09-19T11:03:40.473Z,8.39
2022-09-19T11:06:14.567Z,8.48
2022-09-19T11:08:49.495Z,8.48
2022-09-19T11:11:48.732Z,8.42
2022-09-19T11:14:30.204Z,8.44
2022-09-19T11:17:34.964Z,8.41
2022-09-19T11:20:20.162Z,8.45
2022-09-19T11:23:18.121Z,8.54
2022-09-19T11:26:28.822Z,8.49
2022-09-19T11:29:18.628Z,8.53
2022-09-19T11:35:28.594Z,8.56
2022-09-19T11:41:26.744Z,8.52
2022-09-19T11:44:08.380Z,8.61
2022-09-19T11:46:50.516Z,8.61
2022-09-19T11:49:48.349Z,8.57
2022-09-19T11:52:36.972Z,8.53
2022-09-19T11:55:34.262Z,8.57
2022-09-19T11:58:28.917Z,8.55
2022-09-19T12:01:06.673Z,8.53
2022-09-19T12:04:06.901Z,8.56
2022-09-19T12:06:56.715Z,8.67
2022-09-19T12:09:33.805Z,8.72
2022-09-19T12:12:10.136Z,8.78
2022-09-19T12:14:42.955Z,8.87
2022-09-19T12:17:35.394Z,8.90
2022-09-19T12:20:15.746Z,8.81
2022-09-19T12:22:49.065Z,8.92
2022-09-19T12:25:22.110Z,8.83
2022-09-19T12:28:07.255Z,8.98
2022-09-19T12:30:42.215Z,9.06
2022-09-19T12:33:34.651Z,9.04
2022-09-19T12:36:31.405Z,8.87
2022-09-19T12:39:04.156Z,8.91
2022-09-19T12:41:55.415Z,8.79
2022-09-19T12:44:27.177Z,8.66
2022-09-19T12:47:02.728Z,8.65
2022-09-19T12:49:57.497Z,8.70
2022-09-19T12:52:36.803Z,8.70
2022-09-19T12:55:16.609Z,8.73
2022-09-19T12:57:52.154Z,8.69
2022-09-19T13:00:21.845Z,8.59
2022-09-19T13:03:19.085Z,8.64
2022-09-19T13:05:56.934Z,8.73
2022-09-19T13:08:28.665Z,8.73
2022-09-19T13:11:09.775Z,8.83
2022-09-19T13:13:53.139Z,8.81
2022-09-19T13:16:29.667Z,8.95
2022-09-19T13:19:15.357Z,8.93
2022-09-19T13:22:02.446Z,8.64
2022-09-19T13:24:37.970Z,8.56
2022-09-19T13:27:05.739Z,8.62
2022-09-19T13:29:32.564Z,8.63
2022-09-19T13:32:08.134Z,8.56
2022-09-19T13:34:40.373Z,8.68
2022-09-19T13:37:45.425Z,8.54
2022-09-19T13:40:16.931Z,8.63
2022-09-19T13:42:51.325Z,8.57
2022-09-19T13:45:29.984Z,8.56
2022-09-19T13:48:12.442Z,8.53
2022-09-19T13:50:53.959Z,8.58
2022-09-19T13:53:34.504Z,8.61
2022-09-19T13:56:15.979Z,8.56
2022-09-19T13:58:43.571Z,8.54
2022-09-19T14:01:13.562Z,8.62
2022-09-19T14:03:46.649Z,8.62
2022-09-19T14:06:28.634Z,8.63
2022-09-19T14:12:01.960Z,8.69
2022-09-19T14:14:41.934Z,8.72
2022-09-19T14:17:19.397Z,8.61
2022-09-19T14:19:55.434Z,8.58
2022-09-19T14:22:35.802Z,8.53
2022-09-19T14:25:24.825Z,8.47
2022-09-19T14:28:00.450Z,8.48
2022-09-19T14:31:05.864Z,8.48
2022-09-19T14:33:56.117Z,8.42
2022-09-19T14:36:35.431Z,8.42
2022-09-19T14:39:30.548Z,8.42
2022-09-19T14:42:14.275Z,8.41
2022-09-19T14:45:03.700Z,8.34
2022-09-19T14:47:36.737Z,8.33
2022-09-19T14:50:11.264Z,8.36
2022-09-19T14:52:41.300Z,8.38
2022-09-19T14:55:14.524Z,8.38
2022-09-19T14:57:48.090Z,8.40
2022-09-19T15:00:32.287Z,8.35
2022-09-19T15:03:01.042Z,8.35
2022-09-19T15:05:33.031Z,8.39
2022-09-19T15:08:30.089Z,8.45
2022-09-19T15:11:04.485Z,8.43
2022-09-19T15:13:42.643Z,8.37
2022-09-19T15:16:10.892Z,8.36
2022-09-19T15:18:41.884Z,8.37
2022-09-19T15:21:10.138Z,8.35
2022-09-19T15:23:37.892Z,8.36
2022-09-19T15:26:15.464Z,8.40
2022-09-19T15:28:43.028Z,8.40
2022-09-19T15:31:12.320Z,8.38
2022-09-19T15:33:39.326Z,8.42
2022-09-19T15:36:07.504Z,8.43
2022-09-19T15:38:35.740Z,8.49
2022-09-19T15:41:05.413Z,8.54
2022-09-19T15:43:33.565Z,8.50
2022-09-19T15:46:03.179Z,8.52
2022-09-19T15:48:35.234Z,8.52
2022-09-19T15:51:04.394Z,8.61
2022-09-19T15:53:37.756Z,8.54
2022-09-19T15:56:07.935Z,8.52
2022-09-19T15:58:45.282Z,8.44
2022-09-19T16:01:16.376Z,8.48
2022-09-19T16:03:49.499Z,8.55
2022-09-19T16:06:43.122Z,8.51
2022-09-19T16:09:11.494Z,8.58
2022-09-19T16:11:44.447Z,8.60
2022-09-19T16:14:27.890Z,8.59
2022-09-19T16:16:55.883Z,8.64
2022-09-19T16:19:41.285Z,8.70
2022-09-19T16:22:08.059Z,8.52
2022-09-19T16:24:41.763Z,8.52
2022-09-19T16:27:08.441Z,8.51
2022-09-19T16:29:37.302Z,8.53
2022-09-19T16:32:05.048Z,8.59
2022-09-19T16:34:38.095Z,8.55
2022-09-19T16:37:05.719Z,8.60
2022-09-19T16:39:34.912Z,8.61
2022-09-19T16:42:17.750Z,8.62
2022-09-19T16:45:09.154Z,8.53
2022-09-19T16:47:35.964Z,8.57
2022-09-19T16:50:02.573Z,8.51
2022-09-19T16:52:33.094Z,8.58
2022-09-19T16:55:01.968Z,8.53
2022-09-19T16:57:28.897Z,8.49
2022-09-19T16:59:56.563Z,8.48
2022-09-19T17:02:28.655Z,8.49
2022-09-19T17:04:56.428Z,8.45
2022-09-19T17:07:23.168Z,8.45
2022-09-19T17:09:50.385Z,8.52
2022-09-19T17:12:19.398Z,8.51
2022-09-19T17:14:46.396Z,8.55
2022-09-19T17:17:13.698Z,8.51
2022-09-19T17:19:44.350Z,8.56
2022-09-19T17:22:13.449Z,8.60
2022-09-19T17:24:40.779Z,8.54
2022-09-19T17:27:08.006Z,8.54
2022-09-19T17:29:34.906Z,8.56
2022-09-19T17:32:02.407Z,8.63
2022-09-19T17:34:29.043Z,8.61
2022-09-19T17:36:55.497Z,8.56
2022-09-19T17:39:21.928Z,8.59
2022-09-19T17:41:50.081Z,8.58
2022-09-19T17:44:16.810Z,8.60
2022-09-19T17:46:43.904Z,8.63
2022-09-19T17:49:10.815Z,8.66
2022-09-19T17:51:37.596Z,8.67
2022-09-19T17:54:04.676Z,8.58
2022-09-19T17:56:31.255Z,8.60
2022-09-19T17:59:03.074Z,8.55
2022-09-19T18:01:50.578Z,8.57
2022-09-19T18:04:20.197Z,8.66
2022-09-19T18:06:47.316Z,8.67
2022-09-19T18:09:15.204Z,8.72
2022-09-19T18:11:42.165Z,8.72
2022-09-19T18:14:11.597Z,8.73
2022-09-19T18:16:41.551Z,8.75
2022-09-19T18:19:09.692Z,8.77
2022-09-19T18:21:40.702Z,8.79
2022-09-19T18:24:08.674Z,8.72
2022-09-19T18:26:35.148Z,8.64
2022-09-19T18:29:03.109Z,8.63
2022-09-19T18:31:29.846Z,8.57
2022-09-19T18:33:56.302Z,8.61
2022-09-19T18:36:24.519Z,8.59
2022-09-19T18:38:54.900Z,8.65
2022-09-19T18:41:23.082Z,8.66
2022-09-19T18:43:50.121Z,8.62
2022-09-19T18:46:21.934Z,8.58
2022-09-19T18:48:49.989Z,8.69
2022-09-19T18:51:19.357Z,8.61
2022-09-19T18:53:48.171Z,8.68
2022-09-19T18:56:14.695Z,8.65
2022-09-19T18:58:41.674Z,8.59
2022-09-19T19:01:10.107Z,8.61
2022-09-19T19:03:41.256Z,8.57
2022-09-19T19:06:18.708Z,8.58
2022-09-19T19:08:49.774Z,8.60
2022-09-19T19:11:19.186Z,8.58
2022-09-19T19:13:45.722Z,8.61
2022-09-19T19:16:17.439Z,8.63
2022-09-19T19:18:50.878Z,8.66
2022-09-19T19:21:28.716Z,8.60
2022-09-19T19:23:57.050Z,8.53
2022-09-19T19:26:25.471Z,8.58
2022-09-19T19:28:52.662Z,8.66
2022-09-19T19:31:20.254Z,8.69
2022-09-19T19:33:47.956Z,8.63
2022-09-19T19:36:16.892Z,8.57
2022-09-19T19:38:48.576Z,8.64
2022-09-19T19:41:26.016Z,8.64
2022-09-19T19:43:53.602Z,8.66
2022-09-19T19:46:22.209Z,8.63
2022-09-19T19:48:50.781Z,8.71
2022-09-19T19:51:21.409Z,8.72
2022-09-19T19:53:49.132Z,8.67
2022-09-19T19:56:23.585Z,8.61
2022-09-19T19:58:53.591Z,8.66
2022-09-19T20:01:22.448Z,8.66
2022-09-19T20:03:50.661Z,8.74
2022-09-19T20:06:27.260Z,8.68
2022-09-19T20:08:54.896Z,8.65
2022-09-19T20:11:21.762Z,8.63
2022-09-19T20:13:57.351Z,8.61
2022-09-19T20:16:25.731Z,8.68
2022-09-19T20:18:53.570Z,8.63
2022-09-19T20:21:22.409Z,8.65
2022-09-19T20:23:49.712Z,8.60
2022-09-19T20:26:20.901Z,8.68
2022-09-19T20:28:51.945Z,8.65
2022-09-19T20:31:20.878Z,8.62
2022-09-19T20:33:48.168Z,8.69
2022-09-19T20:36:15.968Z,8.70
2022-09-19T20:38:43.059Z,8.66
2022-09-19T20:41:11.669Z,8.68
2022-09-19T20:43:38.309Z,8.76
2022-09-19T20:46:14.510Z,8.69
2022-09-19T20:48:41.745Z,8.71
2022-09-19T20:51:09.642Z,8.74
2022-09-19T20:53:38.141Z,8.72
2022-09-19T20:56:06.933Z,8.68
2022-09-19T20:58:33.660Z,8.64
2022-09-19T21:01:05.252Z,8.74
2022-09-19T21:03:32.723Z,8.69
2022-09-19T21:05:59.569Z,8.76
2022-09-19T21:08:27.848Z,8.70
2022-09-19T21:11:05.384Z,8.70
2022-09-19T21:13:36.520Z,8.75
2022-09-19T21:16:16.853Z,8.81
2022-09-19T21:18:47.168Z,8.67
2022-09-19T21:21:17.478Z,8.72
2022-09-19T21:23:44.237Z,8.73
2022-09-19T21:26:11.893Z,8.68
2022-09-19T21:28:42.238Z,8.71
2022-09-19T21:31:14.083Z,8.73
2022-09-19T21:33:40.795Z,8.74
2022-09-19T21:36:07.691Z,8.75
2022-09-19T21:38:34.661Z,8.72
2022-09-19T21:41:05.813Z,8.76
2022-09-19T21:43:35.921Z,8.69
2022-09-19T21:46:14.253Z,8.73
2022-09-19T21:48:42.356Z,8.65
2022-09-19T21:51:13.329Z,8.59
2022-09-19T21:53:40.065Z,8.64
2022-09-19T21:56:06.845Z,8.68
2022-09-19T21:58:34.289Z,8.57
2022-09-19T22:01:00.874Z,8.53
2022-09-19T22:03:28.803Z,8.55
2022-09-19T22:05:59.898Z,8.53
2022-09-19T22:08:27.339Z,8.57
2022-09-19T22:11:01.680Z,8.41
2022-09-19T22:13:28.808Z,8.40
2022-09-19T22:15:59.709Z,8.35
2022-09-19T22:18:27.241Z,8.30
2022-09-19T22:20:54.290Z,8.26
2022-09-19T22:23:20.964Z,8.24
2022-09-19T22:25:47.712Z,8.18
2022-09-19T22:28:14.909Z,8.11
2022-09-19T22:30:41.611Z,8.16
2022-09-19T22:33:08.293Z,8.16
2022-09-19T22:35:34.766Z,8.19
2022-09-19T22:38:01.169Z,8.15
2022-09-19T22:40:31.464Z,8.10
2022-09-19T22:42:59.496Z,8.11
2022-09-19T22:45:25.921Z,8.18
2022-09-19T22:47:52.339Z,8.12
2022-09-19T22:50:19.270Z,8.08
2022-09-19T22:52:46.893Z,8.09
2022-09-19T22:55:13.436Z,8.16
2022-09-19T22:57:39.894Z,8.17
2022-09-19T23:00:06.757Z,8.15
2022-09-19T23:02:33.447Z,8.13
2022-09-19T23:04:59.959Z,8.17
2022-09-19T23:07:26.374Z,8.29
2022-09-19T23:09:53.076Z,8.30
2022-09-19T23:12:19.485Z,8.31
2022-09-19T23:14:45.926Z,8.20
2022-09-19T23:17:12.443Z,8.18
2022-09-19T23:19:38.844Z,8.18
2022-09-19T23:22:05.373Z,8.22
2022-09-19T23:24:32.079Z,8.21
2022-09-19T23:26:59.655Z,8.19
2022-09-19T23:29:26.432Z,8.11
2022-09-19T23:31:53.386Z,8.04
2022-09-19T23:34:20.980Z,8.06
2022-09-19T23:36:48.782Z,8.07
2022-09-19T23:39:15.295Z,8.07
2022-09-19T23:41:42.035Z,8.03
2022-09-19T23:44:08.639Z,8.02
2022-09-19T23:46:35.605Z,8.07
2022-09-19T23:49:03.231Z,8.00
2022-09-19T23:51:30.403Z,8.00
2022-09-19T23:53:58.619Z,7.97
2022-09-19T23:56:27.178Z,7.97
2022-09-19T23:58:53.865Z,7.96
